LGX29AF LIMJ-LFPO
Flight info
| Callsign | LGX29AF |
|---|---|
| Flight time | 1h 6m |
| Altitude | 36000 |
| Route | LAGEN DCT TOP DCT AOSTA DCT ORSUD DCT MOLUS DCT UNKIR DCT DJL |
| Aircraft | A319/M-SDE3FGHIRWY/LB1 |
Departure
| Time | 2026-04-12 08:26 |
|---|---|
| Airport | Genoa Cristoforo Colombo Airport (LIMJ) |
Arrival
| Time | 2026-04-12 09:32 |
|---|---|
| Airport | Paris-Orly Airport (LFPO) |
| Time | Latitude | Longitude | Altitude | Speed | Heading |
|---|---|---|---|---|---|
| 2026-04-12 07:56 | 44.41432 | 8.84952 | 23 ft | 0 kts | 60° |
| 2026-04-12 07:56 | 44.41432 | 8.84953 | 23 ft | 0 kts | 60° |
| 2026-04-12 08:05 | 44.41432 | 8.84952 | 23 ft | 0 kts | 60° |
| 2026-04-12 08:18 | 44.41431 | 8.84948 | 24 ft | 2 kts | 60° |
| 2026-04-12 08:19 | 44.41423 | 8.84930 | 24 ft | 2 kts | 60° |
| 2026-04-12 08:19 | 44.41416 | 8.84912 | 24 ft | 2 kts | 60° |
| 2026-04-12 08:19 | 44.41408 | 8.84894 | 24 ft | 2 kts | 60° |
| 2026-04-12 08:19 | 44.41401 | 8.84876 | 24 ft | 2 kts | 60° |
| 2026-04-12 08:20 | 44.41393 | 8.84858 | 24 ft | 2 kts | 60° |
| 2026-04-12 08:20 | 44.41386 | 8.84839 | 24 ft | 2 kts | 62° |
| 2026-04-12 08:20 | 44.41381 | 8.84820 | 24 ft | 2 kts | 83° |
| 2026-04-12 08:20 | 44.41381 | 8.84799 | 24 ft | 2 kts | 100° |
| 2026-04-12 08:21 | 44.41385 | 8.84779 | 24 ft | 1 kts | 107° |
| 2026-04-12 08:21 | 44.41386 | 8.84776 | 24 ft | 0 kts | 105° |
| 2026-04-12 08:23 | 44.41385 | 8.84778 | 23 ft | 0 kts | 105° |
| 2026-04-12 08:23 | 44.41381 | 8.84799 | 23 ft | 4 kts | 105° |
| 2026-04-12 08:23 | 44.41370 | 8.84858 | 23 ft | 8 kts | 104° |
| 2026-04-12 08:23 | 44.41351 | 8.84967 | 23 ft | 13 kts | 104° |
| 2026-04-12 08:24 | 44.41327 | 8.85092 | 24 ft | 13 kts | 105° |
| 2026-04-12 08:24 | 44.41300 | 8.85225 | 24 ft | 13 kts | 116° |
| 2026-04-12 08:24 | 44.41227 | 8.85280 | 24 ft | 9 kts | 187° |
| 2026-04-12 08:24 | 44.41156 | 8.85254 | 24 ft | 11 kts | 196° |
| 2026-04-12 08:25 | 44.41075 | 8.85218 | 24 ft | 12 kts | 208° |
| 2026-04-12 08:25 | 44.41014 | 8.85160 | 24 ft | 5 kts | 249° |
| 2026-04-12 08:25 | 44.41016 | 8.85104 | 23 ft | 0 kts | 286° |
| 2026-04-12 08:25 | 44.41024 | 8.85066 | 23 ft | 28 kts | 285° |
| 2026-04-12 08:26 | 44.41156 | 8.84384 | 22 ft | 113 kts | 285° |
| 2026-04-12 08:26 | 44.41410 | 8.83021 | 190 ft | 163 kts | 287° |
| 2026-04-12 08:26 | 44.41690 | 8.81512 | 951 ft | 164 kts | 287° |
| 2026-04-12 08:26 | 44.41984 | 8.79978 | 1791 ft | 167 kts | 287° |
| 2026-04-12 08:27 | 44.42258 | 8.78416 | 2510 ft | 172 kts | 281° |
| 2026-04-12 08:27 | 44.42071 | 8.76732 | 3094 ft | 186 kts | 236° |
| 2026-04-12 08:27 | 44.41034 | 8.75686 | 3658 ft | 194 kts | 187° |
| 2026-04-12 08:27 | 44.39768 | 8.76030 | 4312 ft | 193 kts | 145° |
| 2026-04-12 08:28 | 44.38692 | 8.77088 | 5135 ft | 194 kts | 144° |
| 2026-04-12 08:28 | 44.37544 | 8.78069 | 5967 ft | 196 kts | 147° |
| 2026-04-12 08:28 | 44.36365 | 8.78999 | 6804 ft | 197 kts | 149° |
| 2026-04-12 08:28 | 44.35179 | 8.79911 | 7603 ft | 199 kts | 150° |
| 2026-04-12 08:29 | 44.33959 | 8.80778 | 8346 ft | 203 kts | 159° |
| 2026-04-12 08:29 | 44.32521 | 8.80740 | 8935 ft | 219 kts | 201° |
| 2026-04-12 08:29 | 44.31405 | 8.79272 | 9585 ft | 235 kts | 242° |
| 2026-04-12 08:29 | 44.31068 | 8.77098 | 10479 ft | 239 kts | 272° |
| 2026-04-12 08:30 | 44.31548 | 8.74789 | 11079 ft | 257 kts | 292° |
| 2026-04-12 08:30 | 44.32295 | 8.72473 | 11607 ft | 275 kts | 293° |
| 2026-04-12 08:30 | 44.33112 | 8.69966 | 12114 ft | 293 kts | 292° |
| 2026-04-12 08:30 | 44.33964 | 8.67303 | 12585 ft | 311 kts | 292° |
| 2026-04-12 08:31 | 44.34863 | 8.64454 | 13031 ft | 330 kts | 292° |
| 2026-04-12 08:31 | 44.35809 | 8.61426 | 13447 ft | 348 kts | 292° |
| 2026-04-12 08:31 | 44.36794 | 8.58257 | 13829 ft | 366 kts | 292° |
| 2026-04-12 08:31 | 44.37817 | 8.54961 | 14395 ft | 377 kts | 292° |
| 2026-04-12 08:32 | 44.38945 | 8.51684 | 15132 ft | 383 kts | 299° |
| 2026-04-12 08:32 | 44.40517 | 8.48644 | 15896 ft | 388 kts | 310° |
| 2026-04-12 08:32 | 44.42470 | 8.46022 | 16637 ft | 392 kts | 318° |
| 2026-04-12 08:32 | 44.44544 | 8.43564 | 17335 ft | 397 kts | 319° |
| 2026-04-12 08:33 | 44.46663 | 8.41098 | 18005 ft | 401 kts | 319° |
| 2026-04-12 08:33 | 44.48817 | 8.38584 | 18649 ft | 405 kts | 319° |
| 2026-04-12 08:33 | 44.50982 | 8.36037 | 19296 ft | 408 kts | 318° |
| 2026-04-12 08:33 | 44.53159 | 8.33462 | 19922 ft | 411 kts | 317° |
| 2026-04-12 08:34 | 44.55344 | 8.30867 | 20531 ft | 415 kts | 317° |
| 2026-04-12 08:34 | 44.57559 | 8.28229 | 21147 ft | 418 kts | 317° |
| 2026-04-12 08:34 | 44.59763 | 8.25599 | 21719 ft | 421 kts | 317° |
| 2026-04-12 08:34 | 44.61987 | 8.22942 | 22279 ft | 424 kts | 317° |
| 2026-04-12 08:35 | 44.64251 | 8.20234 | 22854 ft | 427 kts | 317° |
| 2026-04-12 08:35 | 44.66515 | 8.17523 | 23400 ft | 430 kts | 317° |
| 2026-04-12 08:35 | 44.68766 | 8.14826 | 23948 ft | 432 kts | 317° |
| 2026-04-12 08:35 | 44.71051 | 8.12085 | 24496 ft | 434 kts | 317° |
| 2026-04-12 08:36 | 44.73365 | 8.09307 | 25035 ft | 436 kts | 317° |
| 2026-04-12 08:36 | 44.75653 | 8.06556 | 25538 ft | 438 kts | 316° |
| 2026-04-12 08:36 | 44.77964 | 8.03773 | 26037 ft | 440 kts | 316° |
| 2026-04-12 08:36 | 44.80284 | 8.00973 | 26526 ft | 442 kts | 316° |
| 2026-04-12 08:37 | 44.82646 | 7.98120 | 27026 ft | 444 kts | 316° |
| 2026-04-12 08:37 | 44.84960 | 7.95322 | 27475 ft | 446 kts | 316° |
| 2026-04-12 08:37 | 44.87320 | 7.92468 | 27928 ft | 448 kts | 316° |
| 2026-04-12 08:37 | 44.89711 | 7.89648 | 28364 ft | 451 kts | 319° |
| 2026-04-12 08:38 | 44.92273 | 7.87090 | 28806 ft | 455 kts | 324° |
| 2026-04-12 08:38 | 44.95000 | 7.84866 | 29235 ft | 459 kts | 329° |
| 2026-04-12 08:38 | 44.97941 | 7.82939 | 29651 ft | 462 kts | 333° |
| 2026-04-12 08:38 | 45.00901 | 7.81188 | 30148 ft | 462 kts | 334° |
| 2026-04-12 08:39 | 45.03821 | 7.79501 | 30722 ft | 459 kts | 334° |
| 2026-04-12 08:39 | 45.06791 | 7.77788 | 31265 ft | 457 kts | 334° |
| 2026-04-12 08:39 | 45.09717 | 7.76091 | 31742 ft | 457 kts | 333° |
| 2026-04-12 08:39 | 45.12628 | 7.74392 | 32156 ft | 457 kts | 333° |
| 2026-04-12 08:40 | 45.15567 | 7.72672 | 32594 ft | 457 kts | 333° |
| 2026-04-12 08:40 | 45.18482 | 7.70960 | 33034 ft | 456 kts | 333° |
| 2026-04-12 08:40 | 45.21397 | 7.69245 | 33449 ft | 456 kts | 332° |
| 2026-04-12 08:40 | 45.24334 | 7.67518 | 33859 ft | 455 kts | 332° |
| 2026-04-12 08:41 | 45.27230 | 7.65811 | 34260 ft | 455 kts | 332° |
| 2026-04-12 08:41 | 45.30165 | 7.64078 | 34601 ft | 456 kts | 332° |
| 2026-04-12 08:41 | 45.33087 | 7.62353 | 34895 ft | 457 kts | 332° |
| 2026-04-12 08:41 | 45.36015 | 7.60619 | 35165 ft | 458 kts | 332° |
| 2026-04-12 08:42 | 45.38953 | 7.58880 | 35407 ft | 460 kts | 332° |
| 2026-04-12 08:42 | 45.41895 | 7.57133 | 35635 ft | 461 kts | 332° |
| 2026-04-12 08:42 | 45.44855 | 7.55376 | 35867 ft | 463 kts | 332° |
| 2026-04-12 08:42 | 45.47850 | 7.53595 | 35999 ft | 464 kts | 332° |
| 2026-04-12 08:43 | 45.53800 | 7.50055 | 36023 ft | 464 kts | 332° |
| 2026-04-12 08:43 | 45.59741 | 7.46509 | 36016 ft | 464 kts | 332° |
| 2026-04-12 08:44 | 45.65665 | 7.42962 | 36015 ft | 465 kts | 332° |
| 2026-04-12 08:44 | 45.71599 | 7.39402 | 36002 ft | 465 kts | 332° |
| 2026-04-12 08:45 | 45.77479 | 7.35674 | 35987 ft | 461 kts | 328° |
| 2026-04-12 08:45 | 45.82999 | 7.31136 | 35985 ft | 455 kts | 320° |
| 2026-04-12 08:46 | 45.88192 | 7.25936 | 36001 ft | 455 kts | 318° |
| 2026-04-12 08:47 | 45.95408 | 7.18541 | 35997 ft | 455 kts | 318° |
| 2026-04-12 08:47 | 46.00559 | 7.13283 | 36005 ft | 455 kts | 318° |
| 2026-04-12 08:48 | 46.05709 | 7.08005 | 36009 ft | 456 kts | 318° |
| 2026-04-12 08:48 | 46.10865 | 7.02710 | 35995 ft | 456 kts | 318° |
| 2026-04-12 08:49 | 46.16041 | 6.97378 | 35982 ft | 456 kts | 318° |
| 2026-04-12 08:49 | 46.21182 | 6.92068 | 35985 ft | 456 kts | 318° |
| 2026-04-12 08:50 | 46.26337 | 6.86733 | 35998 ft | 456 kts | 317° |
| 2026-04-12 08:50 | 46.31445 | 6.81427 | 36000 ft | 456 kts | 318° |
| 2026-04-12 08:51 | 46.36591 | 6.76073 | 35994 ft | 456 kts | 317° |
| 2026-04-12 08:51 | 46.41419 | 6.70234 | 35990 ft | 449 kts | 309° |
| 2026-04-12 08:52 | 46.45549 | 6.63634 | 35989 ft | 441 kts | 301° |
| 2026-04-12 08:52 | 46.48992 | 6.56335 | 35986 ft | 436 kts | 294° |
| 2026-04-12 08:53 | 46.52001 | 6.48751 | 35998 ft | 435 kts | 293° |
| 2026-04-12 08:53 | 46.54985 | 6.41135 | 35999 ft | 434 kts | 293° |
| 2026-04-12 08:54 | 46.57966 | 6.33532 | 35998 ft | 434 kts | 292° |
| 2026-04-12 08:54 | 46.60924 | 6.25974 | 35990 ft | 434 kts | 292° |
| 2026-04-12 08:55 | 46.63919 | 6.18309 | 35984 ft | 433 kts | 292° |
| 2026-04-12 08:55 | 46.66885 | 6.10695 | 35984 ft | 434 kts | 292° |
| 2026-04-12 08:56 | 46.69837 | 6.03090 | 35983 ft | 434 kts | 292° |
| 2026-04-12 08:56 | 46.72802 | 5.95435 | 35989 ft | 433 kts | 292° |
| 2026-04-12 08:57 | 46.75745 | 5.87812 | 35995 ft | 434 kts | 291° |
| 2026-04-12 08:57 | 46.78747 | 5.80222 | 36005 ft | 435 kts | 295° |
| 2026-04-12 08:58 | 46.82271 | 5.72925 | 36012 ft | 442 kts | 301° |
| 2026-04-12 08:58 | 46.86339 | 5.66195 | 36027 ft | 449 kts | 307° |
| 2026-04-12 08:59 | 46.90855 | 5.59885 | 36038 ft | 452 kts | 309° |
| 2026-04-12 08:59 | 46.95440 | 5.53615 | 36053 ft | 452 kts | 309° |
| 2026-04-12 09:00 | 47.00048 | 5.47287 | 36064 ft | 451 kts | 309° |
| 2026-04-12 09:00 | 47.04606 | 5.40998 | 36071 ft | 452 kts | 309° |
| 2026-04-12 09:01 | 47.09166 | 5.34686 | 36072 ft | 452 kts | 308° |
| 2026-04-12 09:01 | 47.13749 | 5.28330 | 36073 ft | 452 kts | 308° |
| 2026-04-12 09:02 | 47.18289 | 5.22011 | 36070 ft | 452 kts | 308° |
| 2026-04-12 09:02 | 47.22858 | 5.15635 | 36071 ft | 451 kts | 307° |
| 2026-04-12 09:02 | 47.25119 | 5.12478 | 35882 ft | 447 kts | 307° |
| 2026-04-12 09:03 | 47.27351 | 5.09312 | 35178 ft | 448 kts | 305° |
| 2026-04-12 09:03 | 47.29538 | 5.06007 | 34100 ft | 454 kts | 304° |
| 2026-04-12 09:03 | 47.31702 | 5.02658 | 32964 ft | 461 kts | 304° |
| 2026-04-12 09:03 | 47.33910 | 4.99234 | 31874 ft | 466 kts | 306° |
| 2026-04-12 09:04 | 47.36166 | 4.95744 | 30857 ft | 469 kts | 306° |
| 2026-04-12 09:04 | 47.38400 | 4.92294 | 29945 ft | 468 kts | 306° |
| 2026-04-12 09:04 | 47.40629 | 4.88861 | 29126 ft | 466 kts | 306° |
| 2026-04-12 09:04 | 47.42836 | 4.85468 | 28611 ft | 457 kts | 306° |
| 2026-04-12 09:05 | 47.45015 | 4.82104 | 28089 ft | 448 kts | 306° |
| 2026-04-12 09:05 | 47.47136 | 4.78813 | 27563 ft | 441 kts | 306° |
| 2026-04-12 09:05 | 47.49218 | 4.75573 | 27041 ft | 435 kts | 306° |
| 2026-04-12 09:05 | 47.51299 | 4.72337 | 26799 ft | 438 kts | 305° |
| 2026-04-12 09:06 | 47.53404 | 4.69060 | 26824 ft | 442 kts | 306° |
| 2026-04-12 09:06 | 47.55506 | 4.65787 | 26848 ft | 442 kts | 305° |
| 2026-04-12 09:06 | 47.57632 | 4.62472 | 26876 ft | 442 kts | 306° |
| 2026-04-12 09:06 | 47.59723 | 4.59210 | 26903 ft | 442 kts | 305° |
| 2026-04-12 09:07 | 47.61841 | 4.55897 | 26926 ft | 442 kts | 305° |
| 2026-04-12 09:07 | 47.63942 | 4.52607 | 26954 ft | 442 kts | 306° |
| 2026-04-12 09:07 | 47.66070 | 4.49274 | 26980 ft | 444 kts | 305° |
| 2026-04-12 09:07 | 47.68169 | 4.45977 | 27004 ft | 445 kts | 306° |
| 2026-04-12 09:08 | 47.70306 | 4.42622 | 27029 ft | 445 kts | 306° |
| 2026-04-12 09:08 | 47.72413 | 4.39307 | 27042 ft | 444 kts | 305° |
| 2026-04-12 09:08 | 47.74546 | 4.35950 | 27055 ft | 445 kts | 305° |
| 2026-04-12 09:08 | 47.76644 | 4.32642 | 27058 ft | 442 kts | 304° |
| 2026-04-12 09:09 | 47.78740 | 4.29330 | 27053 ft | 442 kts | 304° |
| 2026-04-12 09:09 | 47.80836 | 4.26011 | 27027 ft | 441 kts | 304° |
| 2026-04-12 09:09 | 47.82921 | 4.22705 | 26559 ft | 441 kts | 304° |
| 2026-04-12 09:09 | 47.85027 | 4.19365 | 25913 ft | 437 kts | 304° |
| 2026-04-12 09:10 | 47.86946 | 4.15994 | 25309 ft | 422 kts | 296° |
| 2026-04-12 09:10 | 47.88348 | 4.12281 | 24759 ft | 404 kts | 285° |
| 2026-04-12 09:10 | 47.89210 | 4.08412 | 24244 ft | 388 kts | 276° |
| 2026-04-12 09:10 | 47.89796 | 4.04540 | 23742 ft | 381 kts | 274° |
| 2026-04-12 09:11 | 47.90337 | 4.00725 | 23243 ft | 376 kts | 274° |
| 2026-04-12 09:11 | 47.90864 | 3.96993 | 22715 ft | 373 kts | 274° |
| 2026-04-12 09:11 | 47.91404 | 3.93197 | 22163 ft | 371 kts | 275° |
| 2026-04-12 09:11 | 47.91937 | 3.89454 | 21621 ft | 370 kts | 275° |
| 2026-04-12 09:12 | 47.92466 | 3.85766 | 21095 ft | 368 kts | 275° |
| 2026-04-12 09:12 | 47.92998 | 3.82053 | 20577 ft | 366 kts | 275° |
| 2026-04-12 09:12 | 47.93532 | 3.78331 | 20051 ft | 365 kts | 276° |
| 2026-04-12 09:12 | 47.94053 | 3.74685 | 19537 ft | 363 kts | 276° |
| 2026-04-12 09:13 | 47.94580 | 3.71004 | 19035 ft | 362 kts | 276° |
| 2026-04-12 09:13 | 47.95099 | 3.67378 | 18526 ft | 360 kts | 277° |
| 2026-04-12 09:13 | 47.95615 | 3.63743 | 18028 ft | 359 kts | 277° |
| 2026-04-12 09:13 | 47.96150 | 3.60127 | 17698 ft | 352 kts | 280° |
| 2026-04-12 09:14 | 47.97062 | 3.56789 | 17503 ft | 349 kts | 294° |
| 2026-04-12 09:14 | 47.98472 | 3.53846 | 17070 ft | 354 kts | 307° |
| 2026-04-12 09:14 | 48.00160 | 3.51205 | 16621 ft | 354 kts | 309° |
| 2026-04-12 09:14 | 48.01887 | 3.48608 | 16156 ft | 353 kts | 310° |
| 2026-04-12 09:15 | 48.03606 | 3.46029 | 15703 ft | 351 kts | 310° |
| 2026-04-12 09:15 | 48.05314 | 3.43447 | 15260 ft | 349 kts | 310° |
| 2026-04-12 09:15 | 48.07002 | 3.40882 | 14814 ft | 347 kts | 310° |
| 2026-04-12 09:15 | 48.08682 | 3.38320 | 14363 ft | 344 kts | 310° |
| 2026-04-12 09:16 | 48.10341 | 3.35782 | 13917 ft | 342 kts | 310° |
| 2026-04-12 09:16 | 48.12001 | 3.33237 | 13476 ft | 339 kts | 310° |
| 2026-04-12 09:16 | 48.13616 | 3.30758 | 13038 ft | 337 kts | 310° |
| 2026-04-12 09:16 | 48.15257 | 3.28234 | 12590 ft | 334 kts | 310° |
| 2026-04-12 09:17 | 48.16836 | 3.25807 | 12352 ft | 324 kts | 310° |
| 2026-04-12 09:17 | 48.18390 | 3.23420 | 12222 ft | 311 kts | 310° |
| 2026-04-12 09:17 | 48.19874 | 3.21136 | 12090 ft | 299 kts | 310° |
| 2026-04-12 09:17 | 48.21291 | 3.18960 | 12037 ft | 287 kts | 310° |
| 2026-04-12 09:18 | 48.22684 | 3.16817 | 11848 ft | 286 kts | 310° |
| 2026-04-12 09:18 | 48.24063 | 3.14685 | 11460 ft | 286 kts | 311° |
| 2026-04-12 09:18 | 48.25433 | 3.12568 | 11096 ft | 285 kts | 311° |
| 2026-04-12 09:18 | 48.26812 | 3.10441 | 10739 ft | 284 kts | 311° |
| 2026-04-12 09:19 | 48.28182 | 3.08325 | 10393 ft | 283 kts | 311° |
| 2026-04-12 09:19 | 48.29546 | 3.06219 | 10048 ft | 281 kts | 311° |
| 2026-04-12 09:19 | 48.30911 | 3.04109 | 9999 ft | 286 kts | 312° |
| 2026-04-12 09:20 | 48.33696 | 2.99799 | 10056 ft | 288 kts | 312° |
| 2026-04-12 09:20 | 48.35087 | 2.97643 | 10069 ft | 288 kts | 312° |
| 2026-04-12 09:20 | 48.37867 | 2.93332 | 10074 ft | 288 kts | 312° |
| 2026-04-12 09:21 | 48.39257 | 2.91172 | 10072 ft | 288 kts | 312° |
| 2026-04-12 09:21 | 48.40654 | 2.88998 | 10070 ft | 288 kts | 312° |
| 2026-04-12 09:21 | 48.42039 | 2.86840 | 10069 ft | 288 kts | 312° |
| 2026-04-12 09:21 | 48.43426 | 2.84678 | 9956 ft | 289 kts | 312° |
| 2026-04-12 09:22 | 48.44869 | 2.82570 | 9537 ft | 290 kts | 322° |
| 2026-04-12 09:22 | 48.46727 | 2.81456 | 9148 ft | 292 kts | 353° |
| 2026-04-12 09:22 | 48.48740 | 2.81634 | 8821 ft | 289 kts | 6° |
| 2026-04-12 09:22 | 48.50732 | 2.81990 | 8485 ft | 285 kts | 5° |
| 2026-04-12 09:23 | 48.52670 | 2.82309 | 8161 ft | 282 kts | 5° |
| 2026-04-12 09:23 | 48.54608 | 2.82607 | 7835 ft | 279 kts | 4° |
| 2026-04-12 09:23 | 48.56549 | 2.82896 | 7515 ft | 276 kts | 4° |
| 2026-04-12 09:23 | 48.58439 | 2.83095 | 7180 ft | 273 kts | 0° |
| 2026-04-12 09:24 | 48.60336 | 2.83045 | 6848 ft | 270 kts | 355° |
| 2026-04-12 09:24 | 48.62176 | 2.82838 | 6523 ft | 267 kts | 354° |
| 2026-04-12 09:24 | 48.64033 | 2.82602 | 6183 ft | 264 kts | 354° |
| 2026-04-12 09:24 | 48.65847 | 2.82371 | 5865 ft | 262 kts | 354° |
| 2026-04-12 09:25 | 48.67644 | 2.82145 | 5536 ft | 260 kts | 354° |
| 2026-04-12 09:25 | 48.69439 | 2.81968 | 5210 ft | 259 kts | 357° |
| 2026-04-12 09:25 | 48.71248 | 2.81941 | 4884 ft | 257 kts | 358° |
| 2026-04-12 09:25 | 48.73031 | 2.81942 | 4563 ft | 256 kts | 358° |
| 2026-04-12 09:26 | 48.74797 | 2.81875 | 4224 ft | 254 kts | 349° |
| 2026-04-12 09:26 | 48.76359 | 2.80831 | 3892 ft | 247 kts | 317° |
| 2026-04-12 09:26 | 48.77388 | 2.78766 | 3580 ft | 243 kts | 297° |
| 2026-04-12 09:26 | 48.78170 | 2.76528 | 3271 ft | 242 kts | 296° |
| 2026-04-12 09:27 | 48.78721 | 2.74119 | 2996 ft | 245 kts | 275° |
| 2026-04-12 09:27 | 48.78533 | 2.71569 | 2974 ft | 246 kts | 255° |
| 2026-04-12 09:27 | 48.78084 | 2.69165 | 2966 ft | 231 kts | 255° |
| 2026-04-12 09:27 | 48.77679 | 2.66872 | 2960 ft | 216 kts | 256° |
| 2026-04-12 09:28 | 48.77302 | 2.64733 | 2957 ft | 202 kts | 255° |
| 2026-04-12 09:28 | 48.76940 | 2.62750 | 2955 ft | 189 kts | 255° |
| 2026-04-12 09:28 | 48.76589 | 2.60862 | 2965 ft | 187 kts | 255° |
| 2026-04-12 09:28 | 48.76234 | 2.58970 | 2891 ft | 188 kts | 255° |
| 2026-04-12 09:29 | 48.75877 | 2.57069 | 2649 ft | 183 kts | 255° |
| 2026-04-12 09:29 | 48.75541 | 2.55277 | 2400 ft | 176 kts | 254° |
| 2026-04-12 09:29 | 48.75216 | 2.53533 | 2229 ft | 165 kts | 254° |
| 2026-04-12 09:29 | 48.74913 | 2.51906 | 1988 ft | 156 kts | 253° |
| 2026-04-12 09:30 | 48.74628 | 2.50376 | 1773 ft | 146 kts | 254° |
| 2026-04-12 09:30 | 48.74358 | 2.48924 | 1565 ft | 143 kts | 253° |
| 2026-04-12 09:30 | 48.74091 | 2.47483 | 1376 ft | 143 kts | 254° |
| 2026-04-12 09:30 | 48.73819 | 2.46017 | 1177 ft | 140 kts | 253° |
| 2026-04-12 09:31 | 48.73566 | 2.44650 | 977 ft | 130 kts | 253° |
| 2026-04-12 09:31 | 48.73324 | 2.43347 | 814 ft | 129 kts | 254° |
| 2026-04-12 09:31 | 48.73083 | 2.42055 | 648 ft | 128 kts | 254° |
| 2026-04-12 09:31 | 48.72847 | 2.40749 | 440 ft | 128 kts | 253° |
| 2026-04-12 09:32 | 48.72604 | 2.39442 | 304 ft | 128 kts | 253° |
| 2026-04-12 09:32 | 48.72397 | 2.38350 | 289 ft | 70 kts | 255° |
| 2026-04-12 09:32 | 48.72320 | 2.37921 | 289 ft | 34 kts | 255° |
| 2026-04-12 09:32 | 48.72258 | 2.37582 | 290 ft | 32 kts | 255° |
| 2026-04-12 09:33 | 48.72200 | 2.37267 | 290 ft | 30 kts | 254° |
| 2026-04-12 09:33 | 48.72173 | 2.36970 | 290 ft | 27 kts | 272° |
| 2026-04-12 09:33 | 48.72186 | 2.36685 | 290 ft | 26 kts | 275° |
| 2026-04-12 09:33 | 48.72234 | 2.36434 | 290 ft | 23 kts | 302° |
| 2026-04-12 09:34 | 48.72344 | 2.36280 | 290 ft | 20 kts | 341° |
| 2026-04-12 09:34 | 48.72474 | 2.36210 | 290 ft | 17 kts | 311° |
| 2026-04-12 09:34 | 48.72475 | 2.36090 | 290 ft | 11 kts | 262° |
| 2026-04-12 09:34 | 48.72467 | 2.35961 | 290 ft | 12 kts | 274° |
| 2026-04-12 09:35 | 48.72476 | 2.35825 | 290 ft | 13 kts | 275° |
| 2026-04-12 09:35 | 48.72507 | 2.35710 | 290 ft | 10 kts | 324° |
| 2026-04-12 09:35 | 48.72583 | 2.35674 | 290 ft | 16 kts | 344° |
| 2026-04-12 09:35 | 48.72703 | 2.35623 | 290 ft | 18 kts | 346° |
| 2026-04-12 09:36 | 48.72826 | 2.35570 | 290 ft | 18 kts | 345° |
| 2026-04-12 09:36 | 48.72941 | 2.35528 | 290 ft | 18 kts | 355° |
| 2026-04-12 09:36 | 48.73034 | 2.35598 | 290 ft | 14 kts | 52° |
| 2026-04-12 09:36 | 48.73092 | 2.35730 | 290 ft | 15 kts | 55° |
| 2026-04-12 09:37 | 48.73152 | 2.35869 | 290 ft | 16 kts | 57° |
| 2026-04-12 09:37 | 48.73206 | 2.36000 | 290 ft | 14 kts | 60° |
| 2026-04-12 09:37 | 48.73205 | 2.36061 | 290 ft | 4 kts | 138° |
| 2026-04-12 09:37 | 48.73173 | 2.36081 | 290 ft | 5 kts | 160° |
| 2026-04-12 09:38 | 48.73157 | 2.36090 | 290 ft | 0 kts | 161° |
| 2026-04-12 09:38 | 48.73156 | 2.36090 | 290 ft | 0 kts | 161° |